Time;durP1;ratioP1;P1;durP2;ratioP2;P2;SDS_P1;SDS_P2;PMS_P1;PMS_P2;Temp;Humidity;BMP_temperature;BMP_pressure;BME280_temperature;BME280_humidity;BME280_pressure;Samples;Min_cycle;Max_cycle;Signal;HPM_P1;HPM_P2
2023/05/20 00:00:49;;;;;;;4.40;1.92;;;;;19.20;102374.00;;;;5088612;28;20708;-76
2023/05/20 00:03:16;;;;;;;3.45;2.08;;;;;19.20;102365.00;;;;5087601;28;20202;-75
2023/05/20 00:05:44;;;;;;;3.83;1.90;;;;;19.10;102367.00;;;;5087168;28;20194;-76
2023/05/20 00:08:11;;;;;;;3.58;2.35;;;;;19.10;102364.00;;;;5088585;28;20198;-76
2023/05/20 00:10:40;;;;;;;6.90;2.60;;;;;19.10;102362.00;;;;5087840;28;20186;-75
2023/05/20 00:13:07;;;;;;;5.18;2.20;;;;;19.00;102356.00;;;;5087580;28;20692;-76
2023/05/20 00:15:36;;;;;;;2.97;2.00;;;;;19.00;102365.00;;;;5088197;28;20206;-76
2023/05/20 00:18:04;;;;;;;3.70;2.13;;;;;19.00;102363.00;;;;5089049;28;20206;-76
2023/05/20 00:20:32;;;;;;;4.00;2.20;;;;;18.90;102369.00;;;;5088221;28;20275;-75
2023/05/20 00:22:59;;;;;;;4.22;2.50;;;;;18.90;102365.00;;;;5087945;28;20210;-76
2023/05/20 00:25:26;;;;;;;3.95;2.05;;;;;18.90;102371.00;;;;5087099;28;21052;-76
2023/05/20 00:27:53;;;;;;;4.38;2.65;;;;;18.90;102374.00;;;;5088341;28;20190;-75
2023/05/20 00:30:21;;;;;;;4.63;2.20;;;;;18.80;102375.00;;;;5088276;28;20209;-76
2023/05/20 00:32:49;;;;;;;4.10;2.53;;;;;18.80;102372.00;;;;5088488;28;20238;-76
2023/05/20 00:35:17;;;;;;;3.92;2.30;;;;;18.80;102368.00;;;;5086697;28;20703;-76
2023/05/20 00:37:44;;;;;;;2.63;1.95;;;;;18.80;102367.00;;;;5088208;28;20683;-76
2023/05/20 00:40:12;;;;;;;3.40;2.28;;;;;18.70;102362.00;;;;5088018;28;20596;-76
2023/05/20 00:42:39;;;;;;;4.25;2.45;;;;;18.70;102363.00;;;;5088595;28;20228;-76
2023/05/20 00:45:07;;;;;;;3.78;2.45;;;;;18.70;102360.00;;;;5088361;28;20210;-76
2023/05/20 00:47:36;;;;;;;4.07;2.20;;;;;18.60;102358.00;;;;5088088;28;20194;-76
2023/05/20 00:50:06;;;;;;;3.30;2.00;;;;;18.60;102348.00;;;;5088414;28;20217;-76
2023/05/20 00:52:33;;;;;;;4.70;2.80;;;;;18.60;102355.00;;;;5088978;28;20321;-75
2023/05/20 00:55:00;;;;;;;5.35;2.00;;;;;18.60;102342.00;;;;5087584;28;20553;-76
2023/05/20 00:57:28;;;;;;;5.70;2.47;;;;;18.50;102345.00;;;;5087260;28;20214;-75
2023/05/20 00:59:56;;;;;;;6.47;1.85;;;;;18.50;102349.00;;;;5091331;28;20309;-76
2023/05/20 01:02:25;;;;;;;3.70;2.60;;;;;18.50;102343.00;;;;5092154;28;20913;-76
2023/05/20 01:04:55;;;;;;;3.88;2.17;;;;;18.50;102341.00;;;;5092426;28;20194;-75
2023/05/20 01:07:24;;;;;;;5.35;2.08;;;;;18.40;102341.00;;;;5091042;28;20259;-76
2023/05/20 01:09:53;;;;;;;5.70;2.67;;;;;18.40;102339.00;;;;5091843;28;20209;-76
2023/05/20 01:12:26;;;;;;;3.88;2.28;;;;;18.30;102335.00;;;;5091010;28;20211;-75
2023/05/20 01:14:59;;;;;;;3.40;2.10;;;;;18.30;102339.00;;;;5091635;28;20206;-76
2023/05/20 01:17:31;;;;;;;3.53;2.30;;;;;18.30;102333.00;;;;5090529;28;20190;-76
2023/05/20 01:20:00;;;;;;;2.88;2.17;;;;;18.30;102331.00;;;;5091987;28;20250;-76
2023/05/20 01:22:29;;;;;;;5.22;2.50;;;;;18.20;102328.00;;;;5090554;28;20194;-76
2023/05/20 01:24:57;;;;;;;3.38;2.22;;;;;18.20;102327.00;;;;5090821;28;20190;-75
2023/05/20 01:27:25;;;;;;;3.95;2.25;;;;;18.20;102321.00;;;;5090993;28;20214;-76
2023/05/20 01:29:53;;;;;;;7.13;2.65;;;;;18.20;102325.00;;;;5091815;28;20206;-76
2023/05/20 01:32:22;;;;;;;4.95;2.53;;;;;18.20;102327.00;;;;5090508;28;20226;-76
2023/05/20 01:34:52;;;;;;;5.72;2.30;;;;;18.10;102327.00;;;;5091205;28;20579;-76
2023/05/20 01:37:20;;;;;;;5.63;2.53;;;;;18.10;102319.00;;;;5090760;28;20210;-76
2023/05/20 01:39:50;;;;;;;3.55;2.38;;;;;18.10;102308.00;;;;5092024;28;20202;-76
2023/05/20 01:42:19;;;;;;;5.13;2.75;;;;;18.10;102304.00;;;;5091548;28;20190;-76
2023/05/20 01:44:46;;;;;;;4.35;2.47;;;;;18.10;102296.00;;;;5091203;28;20214;-76
2023/05/20 01:47:14;;;;;;;6.07;2.90;;;;;18.10;102296.00;;;;5091117;28;20202;-76
2023/05/20 01:49:41;;;;;;;3.72;2.53;;;;;18.10;102298.00;;;;5091766;28;20206;-75
2023/05/20 01:52:08;;;;;;;5.20;3.00;;;;;18.00;102299.00;;;;5091233;28;20721;-76
2023/05/20 01:54:35;;;;;;;3.00;2.40;;;;;18.00;102301.00;;;;5090068;28;20198;-76
2023/05/20 01:57:04;;;;;;;2.85;2.45;;;;;18.00;102305.00;;;;5091277;28;20214;-76
2023/05/20 01:59:32;;;;;;;3.88;2.08;;;;;18.00;102306.00;;;;5091399;28;20221;-76
2023/05/20 02:01:59;;;;;;;3.25;2.50;;;;;17.90;102308.00;;;;5090805;28;20699;-75
2023/05/20 02:04:26;;;;;;;6.68;2.83;;;;;17.90;102300.00;;;;5090484;28;20209;-75
2023/05/20 02:06:54;;;;;;;3.00;2.05;;;;;17.90;102302.00;;;;5090648;28;20198;-76
2023/05/20 02:09:21;;;;;;;3.38;2.10;;;;;17.90;102293.00;;;;5090532;28;20321;-76
2023/05/20 02:11:49;;;;;;;4.50;2.13;;;;;17.80;102286.00;;;;5090630;28;20195;-76
2023/05/20 02:14:17;;;;;;;5.82;2.60;;;;;17.80;102305.00;;;;5090849;28;20290;-76
2023/05/20 02:16:45;;;;;;;3.15;2.40;;;;;17.80;102301.00;;;;5090869;28;20205;-75
2023/05/20 02:19:15;;;;;;;3.30;1.95;;;;;17.80;102304.00;;;;5090526;28;20970;-76
2023/05/20 02:21:42;;;;;;;3.53;2.28;;;;;17.80;102302.00;;;;5090897;28;20232;-74
2023/05/20 02:24:10;;;;;;;3.05;2.58;;;;;17.80;102301.00;;;;5090790;28;20228;-75
2023/05/20 02:26:37;;;;;;;4.65;2.80;;;;;17.80;102300.00;;;;5090087;28;20198;-75
2023/05/20 02:29:05;;;;;;;4.85;2.10;;;;;17.80;102293.00;;;;5089933;28;20202;-75
2023/05/20 02:31:33;;;;;;;4.60;2.10;;;;;17.70;102295.00;;;;5090451;28;20970;-76
2023/05/20 02:34:01;;;;;;;6.35;2.88;;;;;17.70;102298.00;;;;5091241;28;20206;-75
2023/05/20 02:36:28;;;;;;;6.60;2.88;;;;;17.70;102291.00;;;;5090025;28;20202;-75
2023/05/20 02:38:56;;;;;;;3.15;2.25;;;;;17.70;102298.00;;;;5090333;28;20209;-75
2023/05/20 02:41:23;;;;;;;3.80;2.20;;;;;17.70;102288.00;;;;5090413;28;20230;-75
2023/05/20 02:43:50;;;;;;;5.72;2.28;;;;;17.70;102290.00;;;;5090275;28;20222;-75
2023/05/20 02:46:18;;;;;;;4.03;2.45;;;;;17.60;102280.00;;;;5090224;28;20206;-76
2023/05/20 02:48:47;;;;;;;4.43;2.33;;;;;17.60;102289.00;;;;5091096;28;20197;-75
2023/05/20 02:51:14;;;;;;;3.45;2.75;;;;;17.60;102284.00;;;;5089583;28;20652;-75
2023/05/20 02:53:41;;;;;;;5.68;2.33;;;;;17.60;102276.00;;;;5090353;28;20546;-75
2023/05/20 02:56:09;;;;;;;3.45;2.05;;;;;17.60;102277.00;;;;5089178;28;20201;-75
2023/05/20 02:58:37;;;;;;;5.40;2.95;;;;;17.60;102269.00;;;;5089025;28;20202;-76
2023/05/20 03:01:05;;;;;;;3.42;2.20;;;;;17.50;102283.00;;;;5089855;28;20602;-75
2023/05/20 03:03:33;;;;;;;10.02;3.67;;;;;17.50;102275.00;;;;5089791;28;20202;-75
2023/05/20 03:06:01;;;;;;;4.68;2.88;;;;;17.50;102285.00;;;;5090400;28;20194;-75
2023/05/20 03:08:29;;;;;;;4.00;2.25;;;;;17.50;102282.00;;;;5089832;28;20198;-74
2023/05/20 03:10:56;;;;;;;4.22;2.60;;;;;17.50;102283.00;;;;5088492;28;20648;-75
2023/05/20 03:13:24;;;;;;;3.30;2.45;;;;;17.50;102286.00;;;;5085505;28;20210;-75
2023/05/20 03:15:51;;;;;;;4.00;2.33;;;;;17.40;102284.00;;;;5069964;28;20203;-75
2023/05/20 03:18:18;;;;;;;3.55;2.22;;;;;17.40;102287.00;;;;5069269;28;20211;-75
2023/05/20 03:20:46;;;;;;;3.88;2.17;;;;;17.40;102283.00;;;;5069410;28;20235;-75
2023/05/20 03:23:15;;;;;;;4.38;2.47;;;;;17.40;102287.00;;;;5068360;28;20230;-76
2023/05/20 03:25:42;;;;;;;4.45;2.70;;;;;17.40;102284.00;;;;5081662;28;20198;-77
2023/05/20 03:28:10;;;;;;;6.78;2.20;;;;;17.40;102290.00;;;;5089450;28;20217;-77
2023/05/20 03:30:37;;;;;;;5.30;2.53;;;;;17.40;102294.00;;;;5089269;28;20591;-77
2023/05/20 03:33:04;;;;;;;6.40;2.42;;;;;17.40;102284.00;;;;5069449;28;20214;-75
2023/05/20 03:35:32;;;;;;;3.50;2.35;;;;;17.40;102280.00;;;;5068959;28;20285;-74
2023/05/20 03:38:00;;;;;;;3.83;2.55;;;;;17.40;102278.00;;;;5069065;28;20558;-74
2023/05/20 03:40:29;;;;;;;3.53;2.20;;;;;17.40;102279.00;;;;5068649;28;20210;-74
2023/05/20 03:42:56;;;;;;;3.28;2.35;;;;;17.40;102280.00;;;;5069338;28;20676;-74
2023/05/20 03:45:23;;;;;;;6.50;2.78;;;;;17.40;102280.00;;;;5068150;28;20209;-74
2023/05/20 03:47:51;;;;;;;5.13;3.05;;;;;17.40;102275.00;;;;5068931;28;20214;-74
2023/05/20 03:50:18;;;;;;;7.63;2.70;;;;;17.40;102277.00;;;;5068681;28;20237;-74
2023/05/20 03:52:45;;;;;;;3.80;2.33;;;;;17.40;102275.00;;;;5069185;28;20209;-73
2023/05/20 03:55:13;;;;;;;3.80;2.50;;;;;17.40;102275.00;;;;5067880;28;20196;-74
2023/05/20 03:57:42;;;;;;;4.22;2.25;;;;;17.30;102285.00;;;;5068726;28;20198;-77
2023/05/20 04:00:10;;;;;;;5.15;2.65;;;;;17.30;102273.00;;;;5069431;28;20207;-77
2023/05/20 04:02:38;;;;;;;4.68;2.75;;;;;17.30;102287.00;;;;5068673;28;20230;-77
2023/05/20 04:05:07;;;;;;;3.72;2.38;;;;;17.30;102280.00;;;;5068704;28;20213;-76
2023/05/20 04:07:36;;;;;;;4.22;2.65;;;;;17.30;102277.00;;;;5068224;28;20211;-76
2023/05/20 04:10:03;;;;;;;4.72;2.03;;;;;17.30;102276.00;;;;5069050;28;20672;-77
2023/05/20 04:12:31;;;;;;;4.80;2.78;;;;;17.30;102282.00;;;;5069108;28;20198;-77
2023/05/20 04:15:01;;;;;;;5.72;2.90;;;;;17.30;102272.00;;;;5068717;28;20599;-77
2023/05/20 04:17:29;;;;;;;5.32;2.60;;;;;17.30;102273.00;;;;5068706;28;20579;-76
2023/05/20 04:19:58;;;;;;;6.60;2.65;;;;;17.40;102272.00;;;;5068630;28;20199;-77
2023/05/20 04:22:26;;;;;;;3.60;2.63;;;;;17.40;102281.00;;;;5068487;28;20309;-77
2023/05/20 04:24:55;;;;;;;4.72;2.63;;;;;17.40;102281.00;;;;5067381;28;20260;-74
2023/05/20 04:27:22;;;;;;;3.80;2.50;;;;;17.40;102281.00;;;;5068153;28;20283;-74
2023/05/20 04:29:49;;;;;;;3.95;2.42;;;;;17.40;102284.00;;;;5069011;28;20226;-77
2023/05/20 04:32:19;;;;;;;6.57;2.65;;;;;17.40;102280.00;;;;5067124;28;20238;-77
2023/05/20 04:34:49;;;;;;;3.20;2.35;;;;;17.50;102285.00;;;;5068759;28;20187;-77
2023/05/20 04:37:16;;;;;;;6.40;2.95;;;;;17.50;102288.00;;;;5067509;28;20202;-77
2023/05/20 04:39:47;;;;;;;4.95;2.40;;;;;17.50;102287.00;;;;5068066;28;20195;-74
2023/05/20 04:42:14;;;;;;;4.68;2.42;;;;;17.50;102298.00;;;;5067813;28;20696;-75
2023/05/20 04:44:41;;;;;;;4.25;2.45;;;;;17.60;102291.00;;;;5068424;28;20257;-74
2023/05/20 04:47:08;;;;;;;6.25;3.03;;;;;17.60;102286.00;;;;5068427;28;20203;-77
2023/05/20 04:49:37;;;;;;;2.53;1.90;;;;;17.60;102284.00;;;;5068281;28;20191;-74
2023/05/20 04:52:05;;;;;;;6.47;2.22;;;;;17.60;102291.00;;;;5068764;28;20677;-74
2023/05/20 04:54:32;;;;;;;4.28;2.60;;;;;17.60;102290.00;;;;5066581;28;20372;-73
2023/05/20 04:57:00;;;;;;;3.60;2.58;;;;;17.60;102287.00;;;;5067108;28;20203;-74
2023/05/20 04:59:27;;;;;;;5.68;3.17;;;;;17.70;102276.00;;;;5067553;28;20241;-75
2023/05/20 05:01:54;;;;;;;6.55;2.53;;;;;17.70;102286.00;;;;5067326;28;20230;-75
2023/05/20 05:04:22;;;;;;;6.30;2.95;;;;;17.70;102291.00;;;;5067606;28;20617;-74
2023/05/20 05:06:50;;;;;;;5.38;2.63;;;;;17.70;102283.00;;;;5068277;28;20197;-75
2023/05/20 05:09:18;;;;;;;4.15;3.05;;;;;17.80;102286.00;;;;5067219;28;20844;-76
2023/05/20 05:11:45;;;;;;;4.15;2.72;;;;;17.80;102287.00;;;;5067528;28;20293;-75
2023/05/20 05:14:12;;;;;;;3.88;2.55;;;;;17.80;102287.00;;;;5067353;28;20196;-75
2023/05/20 05:16:40;;;;;;;4.43;3.28;;;;;17.80;102283.00;;;;5067976;28;20191;-75
2023/05/20 05:19:07;;;;;;;4.38;2.83;;;;;17.90;102280.00;;;;5066566;28;20297;-75
2023/05/20 05:21:35;;;;;;;3.55;2.88;;;;;17.90;102282.00;;;;5067746;28;20318;-75
2023/05/20 05:24:03;;;;;;;4.80;2.50;;;;;17.90;102281.00;;;;5066680;28;20210;-75
2023/05/20 05:26:31;;;;;;;3.85;2.20;;;;;18.00;102276.00;;;;5067145;28;20195;-76
2023/05/20 05:28:58;;;;;;;5.45;2.50;;;;;18.00;102276.00;;;;5068067;28;20199;-75
2023/05/20 05:31:25;;;;;;;5.43;2.53;;;;;18.10;102276.00;;;;5072134;28;20226;-75
2023/05/20 05:33:52;;;;;;;5.10;2.92;;;;;18.20;102273.00;;;;5087998;28;20205;-75
2023/05/20 05:36:20;;;;;;;4.85;2.55;;;;;18.20;102282.00;;;;5087876;28;20198;-76
2023/05/20 05:38:47;;;;;;;5.22;3.05;;;;;18.30;102274.00;;;;5088282;28;20197;-75
2023/05/20 05:41:15;;;;;;;3.47;2.70;;;;;18.30;102276.00;;;;5087780;28;20229;-76
2023/05/20 05:43:43;;;;;;;5.28;2.33;;;;;18.40;102271.00;;;;5087519;28;20222;-76
2023/05/20 05:46:10;;;;;;;4.88;2.70;;;;;18.50;102273.00;;;;5089251;28;20206;-76
2023/05/20 05:48:37;;;;;;;3.88;2.55;;;;;18.50;102275.00;;;;5089722;28;20212;-75
2023/05/20 05:51:05;;;;;;;3.47;2.50;;;;;18.60;102277.00;;;;5090452;28;20194;-76
2023/05/20 05:53:32;;;;;;;4.07;2.95;;;;;18.70;102272.00;;;;5090982;28;20205;-75
2023/05/20 05:55:59;;;;;;;4.85;2.13;;;;;18.70;102272.00;;;;5090688;28;20202;-75
2023/05/20 05:58:28;;;;;;;3.13;2.45;;;;;18.80;102269.00;;;;5091417;28;20198;-75
2023/05/20 06:00:56;;;;;;;3.90;2.50;;;;;18.80;102272.00;;;;5092016;28;20206;-75
2023/05/20 06:03:23;;;;;;;4.15;2.17;;;;;18.90;102262.00;;;;5090748;28;20194;-75
2023/05/20 06:05:51;;;;;;;5.85;2.50;;;;;19.00;102270.00;;;;5091375;28;20198;-76
2023/05/20 06:08:18;;;;;;;3.42;1.90;;;;;19.00;102271.00;;;;5089825;28;20959;-76
2023/05/20 06:10:48;;;;;;;5.07;2.35;;;;;19.10;102275.00;;;;5089591;28;20210;-75
2023/05/20 06:13:16;;;;;;;3.45;1.90;;;;;19.10;102267.00;;;;5090678;28;20263;-76
2023/05/20 06:15:45;;;;;;;2.83;2.03;;;;;19.20;102262.00;;;;5091310;28;20205;-76
2023/05/20 06:18:12;;;;;;;4.63;2.60;;;;;19.30;102263.00;;;;5089611;28;20206;-77
2023/05/20 06:20:39;;;;;;;3.45;2.35;;;;;19.30;102269.00;;;;5091178;28;20202;-76
2023/05/20 06:23:07;;;;;;;4.50;2.50;;;;;19.40;102266.00;;;;5090755;28;20232;-76
2023/05/20 06:25:34;;;;;;;3.15;2.63;;;;;19.50;102259.00;;;;5090548;28;20568;-76
2023/05/20 06:28:01;;;;;;;3.40;2.38;;;;;19.60;102263.00;;;;5090799;28;20194;-76
2023/05/20 06:30:29;;;;;;;3.22;2.20;;;;;19.70;102268.00;;;;5090949;28;20198;-76
2023/05/20 06:32:57;;;;;;;5.75;2.55;;;;;19.70;102262.00;;;;5090421;28;20226;-76
2023/05/20 06:35:24;;;;;;;4.72;2.10;;;;;19.80;102272.00;;;;5090307;28;20198;-76
2023/05/20 06:37:52;;;;;;;3.75;2.03;;;;;19.90;102271.00;;;;5090411;28;20230;-76
2023/05/20 06:40:19;;;;;;;3.30;2.20;;;;;19.90;102266.00;;;;5090275;28;20297;-76
2023/05/20 06:42:46;;;;;;;8.00;2.63;;;;;20.00;102269.00;;;;5091008;28;20214;-75
2023/05/20 06:45:14;;;;;;;4.43;2.03;;;;;20.10;102263.00;;;;5090204;28;20218;-76
2023/05/20 06:47:41;;;;;;;3.22;2.28;;;;;20.20;102272.00;;;;5089640;28;20210;-77
2023/05/20 06:50:11;;;;;;;2.50;1.85;;;;;20.20;102257.00;;;;5090387;28;20205;-76
2023/05/20 06:52:38;;;;;;;2.25;1.63;;;;;20.30;102264.00;;;;5090399;28;20213;-76
2023/05/20 06:55:06;;;;;;;3.47;2.28;;;;;20.40;102262.00;;;;5089884;28;20201;-76
2023/05/20 06:57:34;;;;;;;4.35;1.88;;;;;20.50;102252.00;;;;5089934;28;20584;-76
2023/05/20 07:00:01;;;;;;;2.92;2.08;;;;;20.60;102253.00;;;;5090102;28;20195;-75
2023/05/20 07:02:28;;;;;;;2.40;1.85;;;;;20.70;102248.00;;;;5088160;28;20279;-76
2023/05/20 07:04:56;;;;;;;2.28;2.05;;;;;20.80;102245.00;;;;5090509;28;20405;-75
2023/05/20 07:07:24;;;;;;;2.60;2.05;;;;;20.90;102240.00;;;;5089798;28;20203;-75
2023/05/20 07:09:52;;;;;;;2.30;2.03;;;;;21.00;102241.00;;;;5090468;28;20194;-75
2023/05/20 07:12:20;;;;;;;3.40;2.03;;;;;21.10;102243.00;;;;5089754;28;20213;-76
2023/05/20 07:14:47;;;;;;;3.88;2.05;;;;;21.20;102253.00;;;;5090518;28;20194;-76
2023/05/20 07:17:14;;;;;;;4.90;2.30;;;;;21.30;102241.00;;;;5088942;28;20285;-76
2023/05/20 07:19:41;;;;;;;4.60;2.00;;;;;21.40;102231.00;;;;5088892;28;20228;-76
2023/05/20 07:22:09;;;;;;;2.40;1.80;;;;;21.50;102232.00;;;;5089860;28;20222;-76
2023/05/20 07:24:38;;;;;;;2.35;1.85;;;;;21.60;102233.00;;;;5089118;28;20251;-76
2023/05/20 07:27:06;;;;;;;5.68;2.25;;;;;21.70;102233.00;;;;5089525;28;20206;-76
2023/05/20 07:29:33;;;;;;;5.28;1.95;;;;;21.80;102240.00;;;;5069525;28;20203;-76
2023/05/20 07:32:01;;;;;;;2.78;1.83;;;;;21.90;102237.00;;;;5069654;28;20743;-77
2023/05/20 07:34:28;;;;;;;2.95;1.90;;;;;22.00;102238.00;;;;5069593;28;20198;-76
2023/05/20 07:36:55;;;;;;;5.97;2.08;;;;;22.10;102233.00;;;;5069759;28;20229;-77
2023/05/20 07:39:23;;;;;;;2.08;1.88;;;;;22.20;102230.00;;;;5068774;28;20285;-77
2023/05/20 07:41:52;;;;;;;2.65;1.83;;;;;22.30;102218.00;;;;5068669;28;20219;-76
2023/05/20 07:44:20;;;;;;;2.38;1.80;;;;;22.40;102219.00;;;;5070844;28;20226;-76
2023/05/20 07:46:48;;;;;;;2.13;1.83;;;;;22.40;102218.00;;;;5088787;28;21221;-77
2023/05/20 07:49:15;;;;;;;5.53;1.77;;;;;22.50;102206.00;;;;5088948;28;20206;-76
2023/05/20 07:51:42;;;;;;;3.13;1.73;;;;;22.60;102218.00;;;;5089525;28;20213;-77
2023/05/20 07:54:10;;;;;;;2.78;1.63;;;;;22.70;102209.00;;;;5088555;28;20655;-77
2023/05/20 07:56:37;;;;;;;2.42;2.10;;;;;22.80;102221.00;;;;5088790;28;20190;-76
2023/05/20 07:59:06;;;;;;;2.05;1.63;;;;;22.90;102201.00;;;;5088639;28;20201;-77
2023/05/20 08:01:34;;;;;;;3.75;2.17;;;;;23.00;102200.00;;;;5088710;28;20218;-76
2023/05/20 08:04:01;;;;;;;3.72;1.88;;;;;23.10;102210.00;;;;5089104;28;20577;-77
2023/05/20 08:06:29;;;;;;;3.95;2.15;;;;;23.20;102200.00;;;;5087881;28;20197;-77
2023/05/20 08:08:56;;;;;;;2.10;1.23;;;;;23.30;102205.00;;;;5088834;28;20198;-76
2023/05/20 08:11:23;;;;;;;2.08;1.50;;;;;23.50;102198.00;;;;5087387;28;20198;-77
2023/05/20 08:13:51;;;;;;;2.45;1.50;;;;;23.60;102196.00;;;;5088842;28;20202;-76
2023/05/20 08:16:20;;;;;;;4.35;1.02;;;;;23.70;102207.00;;;;5088400;28;20587;-78
2023/05/20 08:18:48;;;;;;;1.60;1.30;;;;;23.90;102202.00;;;;5088600;28;20206;-77
2023/05/20 08:21:15;;;;;;;1.75;1.10;;;;;24.00;102207.00;;;;5088624;28;20573;-77
2023/05/20 08:23:43;;;;;;;2.92;1.60;;;;;24.10;102222.00;;;;5088818;28;20316;-77
2023/05/20 08:26:10;;;;;;;1.85;1.10;;;;;24.20;102211.00;;;;5088246;28;20209;-77
2023/05/20 08:28:37;;;;;;;2.03;1.20;;;;;24.30;102210.00;;;;5088523;28;20199;-76
2023/05/20 08:31:05;;;;;;;3.88;1.48;;;;;24.40;102210.00;;;;5088410;28;20226;-77
2023/05/20 08:33:33;;;;;;;2.28;1.27;;;;;24.40;102199.00;;;;5080792;28;20207;-78
2023/05/20 08:36:01;;;;;;;1.73;0.95;;;;;24.50;102195.00;;;;5076945;28;20206;-76
2023/05/20 08:38:28;;;;;;;3.20;1.52;;;;;24.60;102203.00;;;;5088196;28;20207;-78
2023/05/20 08:40:56;;;;;;;1.95;1.23;;;;;24.70;102190.00;;;;5088011;28;20210;-76
2023/05/20 08:43:24;;;;;;;1.60;0.95;;;;;24.80;102191.00;;;;5088077;28;20226;-76
2023/05/20 08:45:52;;;;;;;2.15;1.40;;;;;24.90;102191.00;;;;5088379;28;20198;-76
2023/05/20 08:48:22;;;;;;;2.90;1.10;;;;;25.00;102187.00;;;;5087881;28;20205;-78
2023/05/20 08:50:52;;;;;;;1.92;0.90;;;;;25.00;102182.00;;;;5088632;28;20231;-76
2023/05/20 08:53:21;;;;;;;7.70;1.50;;;;;25.10;102187.00;;;;5087857;28;20206;-77
2023/05/20 08:55:54;;;;;;;1.77;1.10;;;;;25.10;102178.00;;;;5087674;28;20204;-76
2023/05/20 08:58:22;;;;;;;1.77;1.20;;;;;25.30;102182.00;;;;5088323;28;20198;-77
2023/05/20 09:00:50;;;;;;;1.45;1.10;;;;;25.40;102182.00;;;;5088896;28;20709;-76
2023/05/20 09:03:19;;;;;;;1.65;1.13;;;;;25.40;102175.00;;;;5088243;28;20225;-76
2023/05/20 09:05:46;;;;;;;3.92;1.17;;;;;25.50;102186.00;;;;5087840;28;20206;-76
2023/05/20 09:08:15;;;;;;;2.05;1.30;;;;;25.60;102181.00;;;;5088107;28;20252;-76
2023/05/20 09:10:42;;;;;;;2.30;1.40;;;;;25.60;102173.00;;;;5087129;28;20201;-77
2023/05/20 09:13:11;;;;;;;2.25;1.02;;;;;25.70;102167.00;;;;5088199;28;20208;-76
2023/05/20 09:15:39;;;;;;;4.78;1.17;;;;;25.70;102173.00;;;;5088182;28;20229;-76
2023/05/20 09:18:08;;;;;;;1.30;0.95;;;;;25.70;102178.00;;;;5088028;28;20209;-76
2023/05/20 09:20:36;;;;;;;2.92;1.13;;;;;25.80;102183.00;;;;5089042;28;20274;-76
2023/05/20 09:23:06;;;;;;;1.83;1.02;;;;;25.80;102172.00;;;;5091626;28;20222;-77
2023/05/20 09:25:35;;;;;;;3.08;1.20;;;;;25.90;102173.00;;;;5091529;28;20205;-76
2023/05/20 09:28:04;;;;;;;1.83;1.27;;;;;26.00;102173.00;;;;5092026;28;20228;-78
2023/05/20 09:30:33;;;;;;;1.95;1.10;;;;;26.00;102187.00;;;;5091765;28;20293;-77
2023/05/20 09:33:03;;;;;;;2.95;1.33;;;;;26.10;102165.00;;;;5091217;28;20632;-77
2023/05/20 09:35:30;;;;;;;1.45;1.08;;;;;26.20;102166.00;;;;5091518;28;20186;-77
2023/05/20 09:37:58;;;;;;;2.72;1.20;;;;;26.20;102166.00;;;;5092101;28;20281;-77
2023/05/20 09:40:28;;;;;;;1.02;0.93;;;;;26.20;102152.00;;;;5090226;28;20198;-77
2023/05/20 09:43:02;;;;;;;1.33;1.00;;;;;26.20;102161.00;;;;5091068;28;20226;-77
2023/05/20 09:45:29;;;;;;;1.85;1.40;;;;;26.30;102163.00;;;;5089587;28;20214;-77
2023/05/20 09:47:57;;;;;;;1.75;0.90;;;;;26.40;102150.00;;;;5090963;28;20190;-77
2023/05/20 09:50:25;;;;;;;1.80;1.10;;;;;26.50;102154.00;;;;5091216;28;20205;-76
2023/05/20 09:52:55;;;;;;;1.83;1.20;;;;;26.60;102150.00;;;;5090706;28;20202;-76
2023/05/20 09:55:24;;;;;;;1.35;1.05;;;;;26.70;102148.00;;;;5090196;28;20312;-77
2023/05/20 09:57:53;;;;;;;2.53;1.20;;;;;26.80;102146.00;;;;5090874;28;20668;-77
2023/05/20 10:00:21;;;;;;;2.08;1.02;;;;;26.90;102145.00;;;;5090775;28;20260;-77
2023/05/20 10:02:50;;;;;;;1.70;1.02;;;;;27.00;102145.00;;;;5091024;28;20222;-77
2023/05/20 10:05:22;;;;;;;2.50;1.27;;;;;27.10;102136.00;;;;5090179;28;20202;-76
2023/05/20 10:08:09;;;;;;;2.90;1.13;;;;;27.20;102146.00;;;;5090871;28;20213;-77
2023/05/20 10:10:44;;;;;;;1.48;1.00;;;;;27.20;102156.00;;;;5088411;28;20201;-76
2023/05/20 10:13:27;;;;;;;1.40;1.20;;;;;27.30;102146.00;;;;5090638;28;20288;-76
2023/05/20 10:16:06;;;;;;;1.55;1.17;;;;;27.40;102138.00;;;;5090845;28;20193;-77
2023/05/20 10:18:46;;;;;;;1.85;1.15;;;;;27.40;102136.00;;;;5090223;28;20202;-76
2023/05/20 10:21:17;;;;;;;1.65;1.05;;;;;27.40;102141.00;;;;5090024;28;20202;-78
2023/05/20 10:23:45;;;;;;;1.52;1.00;;;;;27.40;102134.00;;;;5090458;28;20233;-77
2023/05/20 10:26:12;;;;;;;1.77;1.10;;;;;27.30;102140.00;;;;5090153;28;20200;-76
2023/05/20 10:28:41;;;;;;;2.95;1.08;;;;;27.30;102129.00;;;;5089609;28;20205;-77
2023/05/20 10:31:21;;;;;;;1.48;0.85;;;;;27.20;102126.00;;;;5087777;28;20288;-76
2023/05/20 10:33:49;;;;;;;1.83;1.13;;;;;27.30;102121.00;;;;5089059;28;20201;-77
2023/05/20 10:36:29;;;;;;;1.45;1.08;;;;;27.20;102112.00;;;;5090275;28;20201;-76
2023/05/20 10:38:57;;;;;;;2.42;0.90;;;;;27.30;102106.00;;;;5090668;28;20202;-77
2023/05/20 10:41:26;;;;;;;1.25;1.10;;;;;27.20;102111.00;;;;5089839;28;20557;-76
2023/05/20 10:44:03;;;;;;;3.03;1.50;;;;;27.10;102108.00;;;;5090420;28;20283;-77
2023/05/20 10:46:33;;;;;;;1.08;0.80;;;;;27.00;102112.00;;;;5090758;28;20201;-78
2023/05/20 10:49:01;;;;;;;1.35;1.10;;;;;26.90;102102.00;;;;5089978;28;20202;-76
2023/05/20 10:51:31;;;;;;;3.08;1.38;;;;;26.80;102111.00;;;;5090377;28;20918;-77
2023/05/20 10:53:58;;;;;;;2.15;1.10;;;;;26.80;102094.00;;;;5089578;28;20233;-76
2023/05/20 10:56:26;;;;;;;2.15;1.17;;;;;26.80;102109.00;;;;5089310;28;20198;-77
2023/05/20 10:58:54;;;;;;;3.13;1.13;;;;;26.80;102100.00;;;;5090879;28;20225;-77
2023/05/20 11:01:25;;;;;;;6.05;1.40;;;;;26.80;102100.00;;;;5089426;28;20291;-78
2023/05/20 11:03:55;;;;;;;1.85;0.73;;;;;26.80;102105.00;;;;5089857;28;20230;-77
2023/05/20 11:06:28;;;;;;;3.72;1.50;;;;;26.80;102092.00;;;;5089412;28;20569;-77
2023/05/20 11:08:55;;;;;;;6.35;2.05;;;;;26.90;102094.00;;;;5089877;28;20210;-76
2023/05/20 11:11:23;;;;;;;1.48;1.38;;;;;26.90;102105.00;;;;5089669;28;20212;-77
2023/05/20 11:13:53;;;;;;;1.88;1.20;;;;;26.90;102090.00;;;;5089652;28;20247;-78
2023/05/20 11:16:21;;;;;;;2.22;1.25;;;;;26.90;102104.00;;;;5089918;28;20217;-79
2023/05/20 11:18:50;;;;;;;2.88;1.25;;;;;27.00;102084.00;;;;5090419;28;20206;-77
2023/05/20 11:21:19;;;;;;;3.08;1.00;;;;;27.00;102095.00;;;;5089166;28;20202;-76
2023/05/20 11:23:46;;;;;;;3.35;1.02;;;;;27.00;102090.00;;;;5089086;28;20330;-77
2023/05/20 11:26:13;;;;;;;4.18;1.10;;;;;27.00;102088.00;;;;5089174;28;20863;-76
2023/05/20 11:28:41;;;;;;;2.05;1.20;;;;;27.00;102078.00;;;;5089792;28;20206;-76
2023/05/20 11:31:08;;;;;;;2.70;0.90;;;;;27.00;102079.00;;;;5089006;28;20230;-77
2023/05/20 11:33:35;;;;;;;3.25;1.17;;;;;27.00;102077.00;;;;5089930;28;20594;-77
2023/05/20 11:36:04;;;;;;;2.65;1.30;;;;;27.00;102077.00;;;;5088611;28;20278;-78
2023/05/20 11:38:33;;;;;;;3.13;1.45;;;;;27.00;102070.00;;;;5090269;28;20289;-77
2023/05/20 11:41:00;;;;;;;2.03;1.42;;;;;27.00;102070.00;;;;5090125;28;20202;-77
2023/05/20 11:43:28;;;;;;;1.42;0.93;;;;;27.10;102069.00;;;;5088802;28;20237;-77
2023/05/20 11:45:58;;;;;;;1.83;1.00;;;;;27.10;102067.00;;;;5090596;28;20194;-76
2023/05/20 11:48:25;;;;;;;1.08;0.93;;;;;27.10;102062.00;;;;5090091;28;20208;-76
2023/05/20 11:50:55;;;;;;;1.95;1.20;;;;;27.10;102065.00;;;;5090341;28;20195;-77
2023/05/20 11:53:24;;;;;;;2.15;1.25;;;;;27.20;102058.00;;;;5088778;28;20213;-77
2023/05/20 11:55:54;;;;;;;3.03;1.15;;;;;27.20;102059.00;;;;5089250;28;20209;-77
2023/05/20 11:58:23;;;;;;;2.30;1.23;;;;;27.20;102055.00;;;;5089216;28;20229;-76
2023/05/20 12:00:51;;;;;;;1.10;0.90;;;;;27.20;102052.00;;;;5089729;28;20210;-77
2023/05/20 12:03:18;;;;;;;2.55;1.05;;;;;27.20;102044.00;;;;5088598;28;20218;-77
2023/05/20 12:05:46;;;;;;;3.65;1.48;;;;;27.20;102048.00;;;;5089038;28;20557;-79
2023/05/20 12:08:14;;;;;;;1.67;1.13;;;;;27.20;102033.00;;;;5088977;28;20194;-76
2023/05/20 12:10:41;;;;;;;1.92;1.00;;;;;27.20;102034.00;;;;5088757;28;20216;-76
2023/05/20 12:13:12;;;;;;;1.25;1.05;;;;;27.10;102033.00;;;;5087811;28;20731;-77